createdAt,value
2022-10-21T00:00:13.337Z,87.10
2022-10-21T00:03:37.674Z,87.20
2022-10-21T00:07:02.641Z,87.20
2022-10-21T00:10:26.238Z,87.50
2022-10-21T00:13:49.762Z,86.70
2022-10-21T00:17:13.167Z,86.90
2022-10-21T00:20:39.605Z,87.40
2022-10-21T00:24:05.421Z,87.90
2022-10-21T00:27:28.944Z,87.80
2022-10-21T00:30:52.472Z,88.10
2022-10-21T00:34:16.076Z,88.00
2022-10-21T00:37:39.728Z,88.20
2022-10-21T00:41:04.797Z,89.00
2022-10-21T00:44:28.708Z,89.30
2022-10-21T00:47:56.919Z,89.80
2022-10-21T00:51:20.584Z,90.00
2022-10-21T00:54:47.001Z,90.20
2022-10-21T00:58:12.557Z,90.30
2022-10-21T01:01:36.310Z,90.30
2022-10-21T01:05:03.375Z,90.50
2022-10-21T01:08:27.236Z,90.70
2022-10-21T01:11:51.233Z,90.90
2022-10-21T01:15:25.770Z,90.90
2022-10-21T01:19:02.288Z,90.90
2022-10-21T01:22:52.055Z,90.70
2022-10-21T01:27:06.988Z,90.50
2022-10-21T01:30:46.152Z,90.10
2022-10-21T01:34:21.179Z,90.00
2022-10-21T01:38:02.043Z,90.00
2022-10-21T01:41:32.235Z,89.90
2022-10-21T01:45:05.813Z,89.60
2022-10-21T01:48:36.310Z,89.10
2022-10-21T01:52:02.736Z,89.50
2022-10-21T01:55:32.611Z,90.20
2022-10-21T01:58:57.764Z,90.40
2022-10-21T02:02:27.915Z,90.80
2022-10-21T02:05:52.804Z,91.10
2022-10-21T02:09:16.569Z,91.40
2022-10-21T02:12:44.499Z,91.60
2022-10-21T02:16:14.211Z,91.80
2022-10-21T02:19:38.502Z,91.90
2022-10-21T02:23:05.696Z,92.20
2022-10-21T02:26:29.968Z,92.10
2022-10-21T02:29:58.724Z,92.00
2022-10-21T02:33:37.492Z,91.90
2022-10-21T02:37:15.248Z,91.70
2022-10-21T02:40:47.215Z,91.70
2022-10-21T02:44:11.328Z,91.60
2022-10-21T02:47:38.501Z,91.60
2022-10-21T02:51:05.180Z,91.40
2022-10-21T02:54:28.703Z,91.20
2022-10-21T02:57:53.465Z,91.00
2022-10-21T03:01:16.945Z,91.10
2022-10-21T03:04:40.404Z,91.30
2022-10-21T03:08:03.883Z,91.40
2022-10-21T03:11:27.856Z,91.60
2022-10-21T03:14:52.652Z,91.60
2022-10-21T03:18:16.437Z,91.40
2022-10-21T03:21:39.896Z,91.40
2022-10-21T03:25:03.777Z,91.20
2022-10-21T03:28:27.187Z,91.10
2022-10-21T03:31:52.033Z,91.10
2022-10-21T03:35:15.727Z,91.20
2022-10-21T03:38:39.168Z,91.30
2022-10-21T03:42:02.576Z,91.20
2022-10-21T03:45:26.339Z,91.30
2022-10-21T03:48:51.139Z,91.40
2022-10-21T03:52:14.582Z,91.30
2022-10-21T03:55:38.001Z,91.40
2022-10-21T03:59:01.498Z,91.30
2022-10-21T04:02:24.967Z,91.10
2022-10-21T04:05:49.770Z,90.80
2022-10-21T04:09:13.707Z,90.50
2022-10-21T04:12:37.503Z,90.70
2022-10-21T04:16:05.476Z,90.60
2022-10-21T04:19:28.921Z,90.70
2022-10-21T04:22:53.919Z,90.90
2022-10-21T04:26:18.567Z,90.80
2022-10-21T04:29:42.071Z,90.80
2022-10-21T04:33:05.888Z,90.70
2022-10-21T04:36:29.382Z,90.70
2022-10-21T04:39:54.128Z,90.60
2022-10-21T04:43:17.539Z,90.60
2022-10-21T04:46:40.924Z,90.50
2022-10-21T04:50:04.582Z,90.50
2022-10-21T04:53:27.951Z,90.50
2022-10-21T04:56:52.638Z,90.50
2022-10-21T05:00:16.539Z,90.40
2022-10-21T05:03:39.943Z,90.40
2022-10-21T05:07:03.335Z,90.30
2022-10-21T05:10:26.854Z,90.30
2022-10-21T05:13:51.557Z,90.30
2022-10-21T05:17:14.974Z,90.20
2022-10-21T05:20:38.372Z,90.50
2022-10-21T05:24:01.970Z,91.10
2022-10-21T05:27:25.542Z,91.60
2022-10-21T05:30:50.474Z,92.00
2022-10-21T05:34:13.871Z,92.00
2022-10-21T05:37:37.283Z,92.10
2022-10-21T05:41:01.290Z,92.10
2022-10-21T05:44:25.304Z,92.00
2022-10-21T05:47:50.095Z,91.90
2022-10-21T05:51:13.501Z,91.50
2022-10-21T05:54:36.903Z,91.40
2022-10-21T05:58:00.407Z,91.30
2022-10-21T06:01:24.401Z,91.30
2022-10-21T06:04:49.242Z,91.30
2022-10-21T06:08:12.695Z,91.30
2022-10-21T06:11:36.153Z,91.40
2022-10-21T06:14:59.757Z,91.60
2022-10-21T06:18:23.224Z,91.60
2022-10-21T06:21:49.012Z,91.60
2022-10-21T06:25:12.460Z,91.50
2022-10-21T06:28:39.124Z,91.50
2022-10-21T06:32:02.603Z,91.40
2022-10-21T06:35:26.263Z,91.50
2022-10-21T06:38:51.286Z,91.50
2022-10-21T06:42:15.774Z,91.50
2022-10-21T06:45:45.054Z,91.60
2022-10-21T06:49:08.485Z,91.60
2022-10-21T06:52:32.339Z,91.70
2022-10-21T06:56:04.604Z,91.80
2022-10-21T06:59:28.065Z,91.50
2022-10-21T07:02:51.627Z,91.70
2022-10-21T07:06:15.337Z,91.80
2022-10-21T07:09:38.918Z,91.90
2022-10-21T07:13:03.789Z,92.10
2022-10-21T07:16:30.206Z,92.20
2022-10-21T07:19:54.215Z,92.40
2022-10-21T07:23:17.668Z,92.40
2022-10-21T07:26:42.271Z,92.50
2022-10-21T07:30:08.498Z,92.60
2022-10-21T07:33:32.461Z,92.60
2022-10-21T07:36:56.073Z,92.60
2022-10-21T07:40:19.756Z,92.80
2022-10-21T07:43:43.193Z,92.80
2022-10-21T07:47:08.120Z,92.70
2022-10-21T07:50:31.549Z,92.70
2022-10-21T07:53:57.900Z,92.90
2022-10-21T07:57:25.756Z,92.90
2022-10-21T08:00:49.212Z,93.10
2022-10-21T08:04:16.578Z,93.30
2022-10-21T08:07:43.508Z,93.30
2022-10-21T08:11:08.988Z,93.40
2022-10-21T08:14:32.620Z,93.30
2022-10-21T08:17:56.081Z,93.30
2022-10-21T08:21:24.121Z,93.20
2022-10-21T08:24:47.638Z,93.00
2022-10-21T08:28:11.113Z,93.10
2022-10-21T08:31:34.544Z,93.20
2022-10-21T08:34:58.426Z,93.20
2022-10-21T08:38:23.297Z,93.40
2022-10-21T08:42:07.056Z,93.50
2022-10-21T08:45:39.697Z,93.30
2022-10-21T08:49:12.897Z,93.30
2022-10-21T08:52:48.507Z,93.40
2022-10-21T08:56:19.885Z,93.30
2022-10-21T08:59:43.894Z,93.60
2022-10-21T09:03:19.620Z,93.90
2022-10-21T09:06:56.040Z,93.80
2022-10-21T09:10:37.235Z,93.30
2022-10-21T09:14:37.174Z,93.60
2022-10-21T09:18:26.531Z,93.70
2022-10-21T09:22:33.690Z,94.10
2022-10-21T09:26:00.966Z,94.60
2022-10-21T09:29:33.569Z,95.50
2022-10-21T09:33:01.030Z,95.30
2022-10-21T09:36:30.604Z,95.30
2022-10-21T09:40:06.862Z,95.70
2022-10-21T09:43:31.770Z,96.20
2022-10-21T09:46:56.655Z,96.10
2022-10-21T09:50:20.719Z,95.90
2022-10-21T09:53:53.952Z,95.80
2022-10-21T09:57:29.655Z,95.40
2022-10-21T10:00:54.129Z,95.20
2022-10-21T10:04:26.895Z,95.40
2022-10-21T10:07:50.469Z,95.20
2022-10-21T10:11:19.067Z,95.70
2022-10-21T10:14:45.889Z,95.30
2022-10-21T10:18:22.942Z,95.20
2022-10-21T10:22:10.427Z,94.50
2022-10-21T10:25:37.418Z,94.60
2022-10-21T10:29:09.803Z,94.50
2022-10-21T10:32:36.392Z,94.30
2022-10-21T10:36:05.546Z,94.20
2022-10-21T10:39:37.517Z,94.50
2022-10-21T10:43:08.368Z,94.40
2022-10-21T10:46:36.041Z,94.30
2022-10-21T10:49:59.614Z,94.40
2022-10-21T10:53:30.369Z,94.30
2022-10-21T10:56:59.066Z,93.70
2022-10-21T11:00:24.857Z,93.50
2022-10-21T11:03:58.379Z,93.70
2022-10-21T11:07:30.256Z,93.60
2022-10-21T11:11:01.109Z,94.00
2022-10-21T11:14:25.972Z,94.20
2022-10-21T11:18:17.033Z,94.10
2022-10-21T11:21:53.501Z,93.70
2022-10-21T11:25:26.151Z,94.40
2022-10-21T11:29:05.529Z,94.80
2022-10-21T11:32:44.960Z,95.50
2022-10-21T11:36:25.245Z,94.70
2022-10-21T11:40:00.291Z,94.40
2022-10-21T11:43:41.386Z,94.30
2022-10-21T11:47:18.259Z,94.60
2022-10-21T11:50:56.533Z,94.60
2022-10-21T11:55:07.940Z,94.70
2022-10-21T11:58:48.768Z,94.30
2022-10-21T12:02:18.489Z,94.80
2022-10-21T12:05:57.198Z,93.80
2022-10-21T12:09:27.649Z,92.60
2022-10-21T12:12:56.055Z,92.60
2022-10-21T12:16:25.826Z,92.30
2022-10-21T12:19:57.843Z,91.90
2022-10-21T12:23:26.478Z,91.70
2022-10-21T12:26:59.875Z,91.70
2022-10-21T12:30:33.472Z,91.60
2022-10-21T12:33:58.007Z,91.90
2022-10-21T12:38:06.980Z,92.50
2022-10-21T12:41:35.188Z,91.50
2022-10-21T12:44:58.717Z,92.00
2022-10-21T12:48:34.537Z,92.00
2022-10-21T12:52:08.896Z,91.00
2022-10-21T12:55:39.341Z,91.20
2022-10-21T12:59:07.709Z,91.10
2022-10-21T13:02:31.179Z,90.60
2022-10-21T13:06:06.747Z,90.40
2022-10-21T13:09:40.806Z,89.60
2022-10-21T13:13:41.947Z,90.10
2022-10-21T13:17:50.031Z,88.90
2022-10-21T13:21:37.840Z,89.00
2022-10-21T13:25:21.622Z,89.70
2022-10-21T13:29:08.650Z,89.30
2022-10-21T13:32:37.637Z,89.40
2022-10-21T13:36:09.479Z,89.80
2022-10-21T13:39:35.443Z,89.90
2022-10-21T13:43:03.863Z,89.80
2022-10-21T13:46:31.907Z,89.60
2022-10-21T13:50:03.438Z,89.30
2022-10-21T13:53:35.539Z,88.80
2022-10-21T13:57:07.799Z,88.80
2022-10-21T14:00:33.070Z,88.10
2022-10-21T14:04:13.797Z,88.80
2022-10-21T14:07:39.738Z,88.30
2022-10-21T14:11:11.927Z,88.50
2022-10-21T14:14:39.705Z,88.90
2022-10-21T14:18:04.555Z,89.00
2022-10-21T14:21:32.143Z,89.50
2022-10-21T14:25:01.788Z,89.50
2022-10-21T14:28:25.497Z,88.90
2022-10-21T14:31:49.187Z,89.10
2022-10-21T14:35:27.647Z,89.00
2022-10-21T14:39:01.691Z,88.50
2022-10-21T14:42:27.140Z,89.00
2022-10-21T14:45:54.691Z,89.30
2022-10-21T14:49:25.700Z,89.30
2022-10-21T14:52:51.640Z,89.20
2022-10-21T14:56:20.548Z,89.70
2022-10-21T14:59:45.479Z,89.20
2022-10-21T15:03:11.651Z,89.00
2022-10-21T15:06:35.982Z,89.20
2022-10-21T15:10:19.272Z,89.20
2022-10-21T15:13:59.288Z,88.30
2022-10-21T15:17:24.482Z,87.90
2022-10-21T15:20:57.723Z,89.20
2022-10-21T15:24:26.714Z,89.00
2022-10-21T15:27:50.384Z,89.40
2022-10-21T15:31:21.047Z,88.30
2022-10-21T15:38:14.493Z,88.40
2022-10-21T15:41:38.519Z,88.80
2022-10-21T15:45:03.154Z,88.60
2022-10-21T15:48:28.040Z,88.50
2022-10-21T15:51:53.348Z,89.10
2022-10-21T15:55:17.235Z,89.20
2022-10-21T15:58:40.789Z,89.50
2022-10-21T16:05:29.451Z,89.80
2022-10-21T16:08:54.365Z,89.60
2022-10-21T16:12:21.618Z,89.00
2022-10-21T16:15:45.115Z,89.20
2022-10-21T16:19:09.988Z,88.90
2022-10-21T16:22:33.419Z,88.30
2022-10-21T16:25:58.219Z,88.50
2022-10-21T16:29:25.367Z,88.20
2022-10-21T16:32:49.098Z,87.60
2022-10-21T16:36:17.166Z,88.10
2022-10-21T16:39:40.659Z,87.10
2022-10-21T16:43:05.516Z,87.20
2022-10-21T16:46:34.399Z,87.00
2022-10-21T16:50:02.632Z,86.70
2022-10-21T16:53:28.957Z,86.60
2022-10-21T16:56:55.012Z,86.90
2022-10-21T17:00:20.691Z,86.80
2022-10-21T17:03:44.324Z,86.80
2022-10-21T17:07:07.785Z,86.70
2022-10-21T17:10:31.240Z,86.50
2022-10-21T17:13:54.773Z,85.90
2022-10-21T17:17:21.852Z,85.70
2022-10-21T17:20:45.471Z,85.30
2022-10-21T17:24:10.170Z,85.30
2022-10-21T17:27:33.730Z,85.20
2022-10-21T17:30:57.924Z,85.10
2022-10-21T17:34:28.867Z,85.20
2022-10-21T17:37:53.382Z,84.80
2022-10-21T17:41:20.340Z,85.20
2022-10-21T17:44:43.957Z,85.30
2022-10-21T17:48:07.849Z,85.40
2022-10-21T17:51:32.863Z,85.10
2022-10-21T17:54:56.263Z,85.30
2022-10-21T17:58:19.724Z,85.00
2022-10-21T18:01:43.251Z,84.70
2022-10-21T18:05:10.089Z,84.20
2022-10-21T18:08:35.067Z,83.70
2022-10-21T18:12:02.036Z,83.90
2022-10-21T18:15:28.321Z,84.20
2022-10-21T18:18:55.232Z,83.90
2022-10-21T18:22:21.637Z,84.10
2022-10-21T18:25:46.360Z,84.10
2022-10-21T18:29:09.985Z,83.80
2022-10-21T18:32:33.409Z,84.00
2022-10-21T18:35:57.062Z,84.50
2022-10-21T18:39:20.836Z,84.10
2022-10-21T18:42:45.769Z,84.00
2022-10-21T18:46:09.336Z,83.50
2022-10-21T18:49:32.832Z,83.70
2022-10-21T18:52:57.201Z,83.70
2022-10-21T18:56:22.938Z,83.40
2022-10-21T18:59:47.681Z,83.70
2022-10-21T19:03:11.465Z,83.80
2022-10-21T19:06:40.495Z,83.80
2022-10-21T19:10:05.709Z,83.20
2022-10-21T19:13:29.248Z,83.20
2022-10-21T19:16:54.111Z,83.60
2022-10-21T19:20:17.997Z,83.50
2022-10-21T19:23:41.481Z,82.90
2022-10-21T19:27:05.243Z,83.00
2022-10-21T19:30:29.760Z,82.60
2022-10-21T19:33:54.552Z,82.60
2022-10-21T19:37:18.025Z,82.90
2022-10-21T19:40:41.587Z,82.70
2022-10-21T19:44:05.784Z,82.80
2022-10-21T19:47:30.963Z,82.60
2022-10-21T19:50:57.771Z,82.50
2022-10-21T19:54:21.293Z,82.30
2022-10-21T19:57:44.866Z,82.60
2022-10-21T20:01:12.980Z,82.90
2022-10-21T20:04:36.574Z,83.00
2022-10-21T20:08:01.545Z,81.20
2022-10-21T20:11:26.458Z,82.90
2022-10-21T20:14:49.884Z,83.20
2022-10-21T20:18:13.277Z,83.30
2022-10-21T20:21:37.480Z,83.10
2022-10-21T20:25:02.232Z,83.70
2022-10-21T20:28:28.320Z,83.00
2022-10-21T20:31:51.808Z,83.10
2022-10-21T20:35:15.472Z,83.10
2022-10-21T20:38:38.928Z,82.90
2022-10-21T20:42:03.727Z,82.90
2022-10-21T20:45:27.280Z,82.50
2022-10-21T20:48:52.991Z,82.70
2022-10-21T20:52:16.428Z,82.50
2022-10-21T20:55:41.266Z,82.60
2022-10-21T20:59:08.327Z,82.30
2022-10-21T21:02:31.829Z,82.00
2022-10-21T21:05:55.203Z,81.90
2022-10-21T21:09:43.666Z,82.10
2022-10-21T21:13:05.060Z,82.40
2022-10-21T21:16:30.249Z,82.50
2022-10-21T21:19:54.020Z,82.50
2022-10-21T21:23:17.796Z,82.60
2022-10-21T21:26:42.142Z,82.80
2022-10-21T21:30:06.552Z,83.10
2022-10-21T21:33:32.349Z,83.30
2022-10-21T21:36:55.801Z,83.60
2022-10-21T21:40:19.426Z,83.80
2022-10-21T21:43:43.768Z,83.90
2022-10-21T21:47:07.284Z,84.20
2022-10-21T21:50:32.052Z,84.50
2022-10-21T21:53:56.797Z,84.60
2022-10-21T21:57:27.920Z,84.70
2022-10-21T22:00:51.854Z,84.60
2022-10-21T22:04:15.272Z,84.50
2022-10-21T22:07:40.245Z,84.40
2022-10-21T22:11:10.357Z,84.80
2022-10-21T22:14:34.121Z,85.10
2022-10-21T22:17:57.846Z,85.30
2022-10-21T22:21:21.847Z,85.40
2022-10-21T22:24:46.644Z,85.70
2022-10-21T22:28:10.231Z,85.60
2022-10-21T22:31:33.635Z,86.10
2022-10-21T22:34:57.271Z,86.50
2022-10-21T22:38:21.195Z,86.50
2022-10-21T22:41:45.932Z,87.00
2022-10-21T22:45:10.072Z,86.80
2022-10-21T22:48:33.535Z,87.40
2022-10-21T22:51:56.925Z,87.60
2022-10-21T22:55:20.351Z,87.40
2022-10-21T22:58:45.098Z,87.40
2022-10-21T23:02:08.511Z,87.30
2022-10-21T23:05:31.902Z,87.30
2022-10-21T23:08:55.433Z,87.40
2022-10-21T23:12:18.932Z,86.80
2022-10-21T23:15:44.727Z,86.90
2022-10-21T23:19:09.173Z,87.00
2022-10-21T23:22:32.676Z,87.20
2022-10-21T23:25:56.088Z,86.90
2022-10-21T23:29:19.970Z,86.50
2022-10-21T23:32:44.824Z,86.70
2022-10-21T23:36:08.974Z,87.00
2022-10-21T23:39:32.408Z,87.40
2022-10-21T23:42:55.979Z,88.00
2022-10-21T23:46:19.469Z,88.40
2022-10-21T23:49:44.258Z,88.60
2022-10-21T23:53:07.730Z,88.80
2022-10-21T23:56:32.275Z,89.10
2022-10-21T23:59:55.664Z,89.20
